createdAt,value
2024-04-25T00:00:35.787Z,100087.02
2024-04-25T00:03:23.448Z,100086.46
2024-04-25T00:05:51.797Z,100082.23
2024-04-25T00:08:19.401Z,100079.33
2024-04-25T00:10:52.157Z,100082.83
2024-04-25T00:13:23.049Z,100078.40
2024-04-25T00:15:51.181Z,100079.74
2024-04-25T00:18:18.835Z,100079.39
2024-04-25T00:20:46.767Z,100081.89
2024-04-25T00:23:14.566Z,100088.89
2024-04-25T00:25:42.377Z,100088.76
2024-04-25T00:28:10.153Z,100087.74
2024-04-25T00:30:37.880Z,100086.13
2024-04-25T00:33:05.836Z,100078.91
2024-04-25T00:35:33.568Z,100070.53
2024-04-25T00:38:01.286Z,100072.84
2024-04-25T00:40:28.926Z,100070.05
2024-04-25T00:42:58.305Z,100064.39
2024-04-25T00:45:26.088Z,100063.23
2024-04-25T00:47:54.481Z,100062.75
2024-04-25T00:50:23.754Z,100062.80
2024-04-25T00:52:52.250Z,100061.09
2024-04-25T00:55:21.047Z,100063.35
2024-04-25T00:57:49.201Z,100060.19
2024-04-25T01:00:18.023Z,100052.72
2024-04-25T01:02:47.042Z,100047.89
2024-04-25T01:05:14.912Z,100043.17
2024-04-25T01:07:44.049Z,100043.81
2024-04-25T01:10:11.855Z,100047.89
2024-04-25T01:12:39.449Z,100049.33
2024-04-25T01:15:07.294Z,100046.89
2024-04-25T01:17:35.384Z,100056.93
2024-04-25T01:20:03.791Z,100053.79
2024-04-25T01:22:36.055Z,100053.06
2024-04-25T01:25:08.367Z,100055.02
2024-04-25T01:27:37.451Z,100058.09
2024-04-25T01:30:06.328Z,100056.90
2024-04-25T01:32:36.853Z,100058.07
2024-04-25T01:35:10.776Z,100058.17
2024-04-25T01:37:38.423Z,100049.16
2024-04-25T01:40:06.886Z,100046.52
2024-04-25T01:42:34.572Z,100043.48
2024-04-25T01:45:02.229Z,100048.25
2024-04-25T01:47:30.038Z,100051.47
2024-04-25T01:49:58.046Z,100052.89
2024-04-25T01:52:25.804Z,100053.25
2024-04-25T01:54:53.424Z,100050.71
2024-04-25T01:57:21.231Z,100050.06
2024-04-25T01:59:49.124Z,100050.42
2024-04-25T02:02:16.964Z,100049.77
2024-04-25T02:04:44.608Z,100047.36
2024-04-25T02:07:13.239Z,100044.88
2024-04-25T02:09:40.886Z,100041.27
2024-04-25T02:12:09.498Z,100040.41
2024-04-25T02:14:37.232Z,100042.50
2024-04-25T02:17:05.067Z,100043.23
2024-04-25T02:19:32.857Z,100038.35
2024-04-25T02:22:19.143Z,100033.97
2024-04-25T02:25:05.611Z,100037.70
2024-04-25T02:27:33.422Z,100040.33
2024-04-25T02:30:01.222Z,100032.88
2024-04-25T02:32:29.125Z,100029.31
2024-04-25T02:34:56.812Z,100030.70
2024-04-25T02:37:25.028Z,100029.82
2024-04-25T02:39:52.984Z,100031.38
2024-04-25T02:42:21.064Z,100034.65
2024-04-25T02:44:48.800Z,100043.27
2024-04-25T02:47:16.489Z,100053.69
2024-04-25T02:49:44.246Z,100053.84
2024-04-25T02:52:11.933Z,100060.85
2024-04-25T02:54:39.615Z,100061.91
2024-04-25T02:57:07.194Z,100063.16
2024-04-25T02:59:34.931Z,100066.11
2024-04-25T03:02:04.577Z,100070.64
2024-04-25T03:04:32.402Z,100070.42
2024-04-25T03:07:00.345Z,100073.27
2024-04-25T03:09:27.915Z,100075.38
2024-04-25T03:11:55.655Z,100073.95
2024-04-25T03:14:23.305Z,100074.16
2024-04-25T03:16:51.050Z,100073.56
2024-04-25T03:19:18.780Z,100076.99
2024-04-25T03:21:46.360Z,100082.51
2024-04-25T03:24:13.937Z,100083.83
2024-04-25T03:26:41.681Z,100087.76
2024-04-25T03:29:09.505Z,100086.84
2024-04-25T03:31:37.263Z,100089.08
2024-04-25T03:34:05.374Z,100083.11
2024-04-25T03:36:33.138Z,100079.41
2024-04-25T03:39:00.694Z,100076.36
2024-04-25T03:41:28.881Z,100076.75
2024-04-25T03:43:56.608Z,100072.39
2024-04-25T03:46:24.133Z,100069.06
2024-04-25T03:48:52.124Z,100061.39
2024-04-25T03:51:19.995Z,100061.60
2024-04-25T03:53:50.047Z,100062.10
2024-04-25T03:56:17.775Z,100059.73
2024-04-25T03:58:45.700Z,100056.91
2024-04-25T04:01:16.893Z,100053.70
2024-04-25T04:03:44.887Z,100058.88
2024-04-25T04:06:18.890Z,100052.65
2024-04-25T04:08:46.504Z,100048.85
2024-04-25T04:11:15.682Z,100052.78
2024-04-25T04:13:43.890Z,100053.48
2024-04-25T04:16:11.891Z,100054.42
2024-04-25T04:18:39.586Z,100054.13
2024-04-25T04:21:08.607Z,100057.34
2024-04-25T04:23:38.021Z,100062.95
2024-04-25T04:26:05.892Z,100066.30
2024-04-25T04:28:33.473Z,100067.49
2024-04-25T04:31:01.257Z,100076.67
2024-04-25T04:33:29.499Z,100078.09
2024-04-25T04:35:57.280Z,100080.06
2024-04-25T04:38:25.090Z,100082.77
2024-04-25T04:40:55.718Z,100085.56
2024-04-25T04:43:23.624Z,100084.08
2024-04-25T04:45:56.122Z,100084.91
2024-04-25T04:48:31.408Z,100080.55
2024-04-25T04:51:03.186Z,100089.24
2024-04-25T04:53:32.279Z,100090.11
2024-04-25T04:56:00.177Z,100088.79
2024-04-25T04:58:28.138Z,100088.16
2024-04-25T05:00:56.618Z,100091.91
2024-04-25T05:03:24.589Z,100095.95
2024-04-25T05:05:53.634Z,100099.88
2024-04-25T05:08:22.139Z,100104.88
2024-04-25T05:10:49.823Z,100103.17
2024-04-25T05:13:20.077Z,100106.09
2024-04-25T05:15:47.831Z,100108.34
2024-04-25T05:18:15.705Z,100111.70
2024-04-25T05:20:44.085Z,100114.41
2024-04-25T05:23:12.365Z,100119.30
2024-04-25T05:25:40.034Z,100120.52
2024-04-25T05:28:07.698Z,100125.92
2024-04-25T05:30:35.778Z,100128.95
2024-04-25T05:33:05.515Z,100134.81
2024-04-25T05:35:36.026Z,100132.67
2024-04-25T05:38:04.093Z,100132.06
2024-04-25T05:40:31.751Z,100132.42
2024-04-25T05:42:59.586Z,100126.77
2024-04-25T05:45:27.444Z,100124.26
2024-04-25T05:47:55.505Z,100128.36
2024-04-25T05:50:23.367Z,100129.98
2024-04-25T05:52:51.259Z,100128.21
2024-04-25T05:55:19.425Z,100130.25
2024-04-25T05:57:47.059Z,100135.36
2024-04-25T06:00:14.781Z,100138.59
2024-04-25T06:02:42.689Z,100139.36
2024-04-25T06:05:12.268Z,100136.81
2024-04-25T06:07:40.358Z,100133.48
2024-04-25T06:10:08.965Z,100138.51
2024-04-25T06:12:38.278Z,100134.91
2024-04-25T06:15:06.670Z,100132.22
2024-04-25T06:17:35.155Z,100126.23
2024-04-25T06:20:05.317Z,100122.30
2024-04-25T06:22:33.958Z,100126.63
2024-04-25T06:25:03.089Z,100123.58
2024-04-25T06:27:32.035Z,100128.98
2024-04-25T06:30:00.364Z,100133.51
2024-04-25T06:32:28.695Z,100136.96
2024-04-25T06:34:57.105Z,100139.94
2024-04-25T06:37:24.596Z,100138.23
2024-04-25T06:39:52.838Z,100137.27
2024-04-25T06:42:21.421Z,100132.96
2024-04-25T06:44:53.462Z,100134.32
2024-04-25T06:47:22.249Z,100136.05
2024-04-25T06:49:50.474Z,100136.13
2024-04-25T06:52:18.723Z,100132.17
2024-04-25T06:54:46.196Z,100131.45
2024-04-25T06:57:14.044Z,100133.63
2024-04-25T06:59:45.532Z,100134.95
2024-04-25T07:02:17.713Z,100135.73
2024-04-25T07:04:47.779Z,100137.74
2024-04-25T07:07:15.357Z,100136.58
2024-04-25T07:09:43.209Z,100140.72
2024-04-25T07:12:10.906Z,100142.43
2024-04-25T07:14:39.075Z,100137.95
2024-04-25T07:17:06.915Z,100135.02
2024-04-25T07:19:34.912Z,100132.48
2024-04-25T07:22:02.656Z,100133.38
2024-04-25T07:24:30.312Z,100135.10
2024-04-25T07:26:58.176Z,100135.46
2024-04-25T07:29:25.875Z,100137.20
2024-04-25T07:31:54.521Z,100138.11
2024-04-25T07:34:22.269Z,100142.37
2024-04-25T07:36:50.337Z,100139.30
2024-04-25T07:39:21.388Z,100140.15
2024-04-25T07:41:49.804Z,100139.30
2024-04-25T07:44:17.968Z,100137.77
2024-04-25T07:46:46.165Z,100136.61
2024-04-25T07:49:19.175Z,100136.30
2024-04-25T07:51:46.818Z,100133.52
2024-04-25T07:54:15.841Z,100137.02
2024-04-25T07:56:43.478Z,100138.90
2024-04-25T07:59:11.556Z,100138.38
2024-04-25T08:01:39.237Z,100140.44
2024-04-25T08:04:06.962Z,100142.33
2024-04-25T08:06:35.599Z,100142.00
2024-04-25T08:09:04.413Z,100137.77
2024-04-25T08:11:32.093Z,100139.81
2024-04-25T08:14:01.902Z,100136.75
2024-04-25T08:16:30.447Z,100133.92
2024-04-25T08:18:57.994Z,100136.06
2024-04-25T08:21:25.890Z,100130.77
2024-04-25T08:23:53.596Z,100131.52
2024-04-25T08:26:25.131Z,100132.70
2024-04-25T08:28:52.765Z,100128.39
2024-04-25T08:31:20.321Z,100127.14
2024-04-25T08:33:48.697Z,100123.78
2024-04-25T08:36:16.848Z,100126.50
2024-04-25T08:38:48.698Z,100129.34
2024-04-25T08:41:19.429Z,100126.81
2024-04-25T08:43:47.485Z,100129.05
2024-04-25T08:46:18.215Z,100134.26
2024-04-25T08:48:47.493Z,100131.67
2024-04-25T08:51:17.682Z,100130.20
2024-04-25T08:53:48.699Z,100131.27
2024-04-25T08:56:16.372Z,100128.42
2024-04-25T08:58:45.684Z,100128.59
2024-04-25T09:01:13.940Z,100130.30
2024-04-25T09:03:44.880Z,100130.25
2024-04-25T09:06:14.822Z,100135.85
2024-04-25T09:08:43.987Z,100133.69
2024-04-25T09:11:25.516Z,100133.70
2024-04-25T09:13:57.906Z,100128.59
2024-04-25T09:16:26.011Z,100130.17
2024-04-25T09:18:55.505Z,100132.37
2024-04-25T09:21:23.260Z,100128.79
2024-04-25T09:23:52.392Z,100124.82
2024-04-25T09:26:21.936Z,100123.76
2024-04-25T09:28:50.062Z,100123.30
2024-04-25T09:31:18.079Z,100122.83
2024-04-25T09:33:47.348Z,100120.27
2024-04-25T09:36:15.448Z,100119.19
2024-04-25T09:38:43.582Z,100118.85
2024-04-25T09:41:14.323Z,100120.59
2024-04-25T09:43:42.471Z,100123.64
2024-04-25T09:46:16.100Z,100120.41
2024-04-25T09:48:52.851Z,100123.66
2024-04-25T09:51:32.059Z,100125.69
2024-04-25T09:54:17.199Z,100125.23
2024-04-25T09:56:53.586Z,100125.04
2024-04-25T09:59:40.415Z,100126.94
2024-04-25T10:02:16.711Z,100121.83
2024-04-25T10:04:45.242Z,100122.36
2024-04-25T10:07:18.487Z,100118.33
2024-04-25T10:09:49.369Z,100123.47
2024-04-25T10:12:27.292Z,100120.77
2024-04-25T10:15:00.976Z,100118.67
2024-04-25T10:17:31.918Z,100118.61
2024-04-25T10:20:04.933Z,100118.97
2024-04-25T10:22:34.235Z,100117.83
2024-04-25T10:25:04.816Z,100117.45
2024-04-25T10:27:35.645Z,100115.85
2024-04-25T10:30:10.322Z,100112.14
2024-04-25T10:32:38.120Z,100109.64
2024-04-25T10:35:06.079Z,100107.71
2024-04-25T10:37:40.372Z,100107.33
2024-04-25T10:40:12.697Z,100107.26
2024-04-25T10:42:40.948Z,100110.65
2024-04-25T10:45:09.035Z,100102.80
2024-04-25T10:47:37.092Z,100102.17
2024-04-25T10:50:05.125Z,100104.83
2024-04-25T10:52:34.297Z,100103.49
2024-04-25T10:55:02.149Z,100101.17
2024-04-25T10:57:31.158Z,100104.54
2024-04-25T10:59:58.813Z,100101.86
2024-04-25T11:02:35.666Z,100100.44
2024-04-25T11:05:06.339Z,100100.33
2024-04-25T11:07:37.042Z,100101.31
2024-04-25T11:10:08.517Z,100097.04
2024-04-25T11:12:37.827Z,100097.44
2024-04-25T11:15:18.958Z,100099.61
2024-04-25T11:18:00.324Z,100098.92
2024-04-25T11:20:33.597Z,100101.36
2024-04-25T11:23:18.720Z,100103.52
2024-04-25T11:25:50.772Z,100106.67
2024-04-25T11:28:20.200Z,100106.45
2024-04-25T11:30:48.470Z,100106.89
2024-04-25T11:33:27.819Z,100103.93
2024-04-25T11:35:57.071Z,100095.42
2024-04-25T11:38:24.908Z,100095.09
2024-04-25T11:40:53.195Z,100096.44
2024-04-25T11:43:23.197Z,100096.71
2024-04-25T11:45:52.235Z,100093.91
2024-04-25T11:48:22.016Z,100085.76
2024-04-25T11:50:50.008Z,100087.06
2024-04-25T11:53:18.113Z,100085.14
2024-04-25T11:55:46.928Z,100085.76
2024-04-25T11:58:16.551Z,100081.73
2024-04-25T12:00:49.217Z,100081.48
2024-04-25T12:03:17.663Z,100080.83
2024-04-25T12:05:45.552Z,100078.40
2024-04-25T12:08:14.900Z,100077.31
2024-04-25T12:10:43.187Z,100078.87
2024-04-25T12:13:11.822Z,100075.25
2024-04-25T12:15:40.011Z,100080.63
2024-04-25T12:18:07.880Z,100079.88
2024-04-25T12:20:37.023Z,100079.42
2024-04-25T12:23:05.458Z,100075.36
2024-04-25T12:25:33.772Z,100075.41
2024-04-25T12:28:02.000Z,100071.33
2024-04-25T12:30:33.185Z,100069.91
2024-04-25T12:33:01.552Z,100068.61
2024-04-25T12:35:29.478Z,100066.00
2024-04-25T12:37:57.137Z,100060.29
2024-04-25T12:40:24.946Z,100059.13
2024-04-25T12:42:52.821Z,100054.42
2024-04-25T12:45:25.039Z,100054.16
2024-04-25T12:47:53.521Z,100053.69
2024-04-25T12:50:22.003Z,100055.06
2024-04-25T12:52:50.111Z,100050.54
2024-04-25T12:55:18.293Z,100051.06
2024-04-25T12:57:51.077Z,100048.87
2024-04-25T13:00:19.331Z,100044.80
2024-04-25T13:02:47.281Z,100043.50
2024-04-25T13:05:16.074Z,100042.65
2024-04-25T13:07:44.459Z,100039.54
2024-04-25T13:10:12.088Z,100041.52
2024-04-25T13:12:40.061Z,100039.95
2024-04-25T13:15:08.895Z,100037.04
2024-04-25T13:17:39.365Z,100042.85
2024-04-25T13:20:08.114Z,100035.77
2024-04-25T13:22:35.841Z,100040.04
2024-04-25T13:25:03.772Z,100038.20
2024-04-25T13:27:31.647Z,100034.85
2024-04-25T13:29:59.496Z,100033.63
2024-04-25T13:32:28.499Z,100033.50
2024-04-25T13:34:59.525Z,100032.14
2024-04-25T13:37:27.411Z,100033.82
2024-04-25T13:39:56.064Z,100027.90
2024-04-25T13:42:24.094Z,100033.90
2024-04-25T13:44:52.063Z,100036.33
2024-04-25T13:47:19.998Z,100039.23
2024-04-25T13:49:47.653Z,100039.65
2024-04-25T13:52:15.393Z,100039.23
2024-04-25T13:54:43.691Z,100040.31
2024-04-25T13:57:11.762Z,100044.08
2024-04-25T13:59:39.573Z,100042.61
2024-04-25T14:02:07.645Z,100041.23
2024-04-25T14:04:35.342Z,100038.32
2024-04-25T14:07:04.524Z,100033.88
2024-04-25T14:09:33.544Z,100034.98
2024-04-25T14:12:01.372Z,100031.30
2024-04-25T14:14:29.604Z,100027.08
2024-04-25T14:17:01.873Z,100027.31
2024-04-25T14:19:29.638Z,100024.15
2024-04-25T14:21:57.431Z,100024.66
2024-04-25T14:24:28.031Z,100027.77
2024-04-25T14:27:15.458Z,100027.05
2024-04-25T14:29:44.357Z,100020.14
2024-04-25T14:32:14.323Z,100020.96
2024-04-25T14:34:45.399Z,100018.41
2024-04-25T14:37:14.710Z,100018.16
2024-04-25T14:39:43.002Z,100014.48
2024-04-25T14:42:10.705Z,100014.38
2024-04-25T14:44:39.769Z,100013.35
2024-04-25T14:47:09.011Z,100009.60
2024-04-25T14:49:39.707Z,100004.80
2024-04-25T14:52:08.188Z,100008.27
2024-04-25T14:54:35.900Z,100008.89
2024-04-25T14:57:03.784Z,100007.63
2024-04-25T14:59:33.399Z,100008.96
2024-04-25T15:02:01.640Z,100005.05
2024-04-25T15:04:29.528Z,100002.17
2024-04-25T15:06:57.167Z,100002.22
2024-04-25T15:09:24.912Z,100003.14
2024-04-25T15:12:10.278Z,100003.84
2024-04-25T15:14:38.364Z,100003.31
2024-04-25T15:17:08.222Z,100003.81
2024-04-25T15:19:45.617Z,100002.39
2024-04-25T15:22:15.334Z,100002.02
2024-04-25T15:24:43.112Z,100003.86
2024-04-25T15:27:11.069Z,100003.80
2024-04-25T15:29:41.235Z,100007.23
2024-04-25T15:32:09.203Z,100005.79
2024-04-25T15:34:37.704Z,100003.13
2024-04-25T15:37:06.890Z,100005.65
2024-04-25T15:39:36.516Z,100004.53
2024-04-25T15:42:04.671Z,100003.41
2024-04-25T15:44:32.970Z,100004.88
2024-04-25T15:47:00.959Z,100005.78
2024-04-25T15:49:28.915Z,100004.27
2024-04-25T15:51:56.481Z,100005.54
2024-04-25T15:54:24.058Z,100007.33
2024-04-25T15:56:51.697Z,100003.42
2024-04-25T15:59:20.438Z,100005.39
2024-04-25T16:01:48.168Z,100006.67
2024-04-25T16:04:17.208Z,100006.23
2024-04-25T16:06:47.915Z,100002.68
2024-04-25T16:09:15.742Z,100006.39
2024-04-25T16:11:43.597Z,100007.54
2024-04-25T16:14:11.518Z,100006.77
2024-04-25T16:16:39.286Z,100008.06
2024-04-25T16:19:06.953Z,100006.92
2024-04-25T16:21:34.554Z,100009.56
2024-04-25T16:24:02.152Z,100008.94
2024-04-25T16:26:29.842Z,100011.75
2024-04-25T16:28:58.069Z,100013.53
2024-04-25T16:31:27.117Z,100010.63
2024-04-25T16:33:57.210Z,100014.00
2024-04-25T16:36:29.119Z,100016.68
2024-04-25T16:38:57.903Z,100016.40
2024-04-25T16:41:27.478Z,100018.73
2024-04-25T16:43:55.144Z,100021.58
2024-04-25T16:46:22.852Z,100022.02
2024-04-25T16:48:50.904Z,100024.35
2024-04-25T16:51:20.058Z,100023.22
2024-04-25T16:53:47.680Z,100027.56
2024-04-25T16:56:15.954Z,100027.48
2024-04-25T16:58:43.614Z,100029.98
2024-04-25T17:01:11.863Z,100034.18
2024-04-25T17:03:42.778Z,100033.36
2024-04-25T17:06:12.620Z,100037.39
2024-04-25T17:08:41.509Z,100039.34
2024-04-25T17:11:27.551Z,100041.45
2024-04-25T17:13:58.816Z,100039.55
2024-04-25T17:16:30.166Z,100047.36
2024-04-25T17:18:58.998Z,100049.83
2024-04-25T17:21:26.707Z,100049.02
2024-04-25T17:23:57.570Z,100049.13
2024-04-25T17:26:25.771Z,100053.64
2024-04-25T17:28:54.347Z,100053.52
2024-04-25T17:31:23.163Z,100054.25
2024-04-25T17:33:51.843Z,100057.74
2024-04-25T17:36:20.687Z,100062.27
2024-04-25T17:38:48.304Z,100062.98
2024-04-25T17:41:16.041Z,100065.95
2024-04-25T17:43:44.066Z,100065.85
2024-04-25T17:46:11.826Z,100066.27
2024-04-25T17:48:39.629Z,100073.92
2024-04-25T17:51:08.553Z,100080.02
2024-04-25T17:53:37.788Z,100084.91
2024-04-25T17:56:06.177Z,100091.70
2024-04-25T17:58:35.796Z,100095.70
2024-04-25T18:01:03.540Z,100097.63
2024-04-25T18:03:32.559Z,100103.40
2024-04-25T18:06:02.747Z,100108.09
2024-04-25T18:08:32.315Z,100110.09
2024-04-25T18:11:00.211Z,100117.95
2024-04-25T18:13:28.387Z,100122.52
2024-04-25T18:15:57.816Z,100124.30
2024-04-25T18:18:25.932Z,100124.77
2024-04-25T18:20:54.514Z,100129.16
2024-04-25T18:23:25.093Z,100135.16
2024-04-25T18:25:53.334Z,100139.95
2024-04-25T18:28:24.605Z,100147.45
2024-04-25T18:30:52.187Z,100150.13
2024-04-25T18:33:19.895Z,100155.70
2024-04-25T18:35:47.700Z,100157.73
2024-04-25T18:38:15.555Z,100162.15
2024-04-25T18:40:43.832Z,100162.77
2024-04-25T18:43:11.819Z,100171.29
2024-04-25T18:45:40.964Z,100173.52
2024-04-25T18:48:11.166Z,100176.31
2024-04-25T18:50:40.632Z,100175.73
2024-04-25T18:53:09.344Z,100179.52
2024-04-25T18:55:37.135Z,100182.02
2024-04-25T18:58:05.197Z,100182.66
2024-04-25T19:00:37.873Z,100184.11
2024-04-25T19:03:06.223Z,100189.92
2024-04-25T19:05:34.333Z,100194.42
2024-04-25T19:08:02.084Z,100194.56
2024-04-25T19:10:31.451Z,100199.64
2024-04-25T19:12:59.430Z,100205.73
2024-04-25T19:15:27.025Z,100208.89
2024-04-25T19:17:54.940Z,100209.54
2024-04-25T19:20:22.862Z,100217.71
2024-04-25T19:22:50.903Z,100222.23
2024-04-25T19:25:18.646Z,100226.47
2024-04-25T19:27:46.957Z,100227.74
2024-04-25T19:30:14.583Z,100228.21
2024-04-25T19:32:42.631Z,100229.40
2024-04-25T19:35:10.396Z,100235.42
2024-04-25T19:37:38.729Z,100235.77
2024-04-25T19:40:07.585Z,100241.41
2024-04-25T19:42:35.287Z,100245.27
2024-04-25T19:45:03.440Z,100244.92
2024-04-25T19:47:34.666Z,100246.70
2024-04-25T19:50:06.057Z,100246.02
2024-04-25T19:52:34.905Z,100248.31
2024-04-25T19:55:02.961Z,100238.88
2024-04-25T19:57:35.209Z,100243.46
2024-04-25T20:00:03.254Z,100245.50
2024-04-25T20:02:31.173Z,100249.67
2024-04-25T20:04:58.972Z,100249.69
2024-04-25T20:07:27.966Z,100249.79
2024-04-25T20:09:55.842Z,100249.77
2024-04-25T20:12:23.805Z,100254.23
2024-04-25T20:14:59.641Z,100257.07
2024-04-25T20:17:48.729Z,100258.75
2024-04-25T20:20:35.074Z,100262.79
2024-04-25T20:23:02.862Z,100269.64
2024-04-25T20:25:30.748Z,100268.60
2024-04-25T20:27:58.416Z,100271.51
2024-04-25T20:30:27.270Z,100274.89
2024-04-25T20:32:56.088Z,100278.27
2024-04-25T20:35:23.906Z,100279.77
2024-04-25T20:37:51.661Z,100281.22
2024-04-25T20:40:19.253Z,100281.99
2024-04-25T20:42:47.385Z,100284.73
2024-04-25T20:45:15.630Z,100286.20
2024-04-25T20:47:43.778Z,100286.35
2024-04-25T20:50:11.473Z,100289.08
2024-04-25T20:52:40.308Z,100289.36
2024-04-25T20:55:08.039Z,100285.21
2024-04-25T20:57:38.501Z,100286.38
2024-04-25T21:00:07.391Z,100286.08
2024-04-25T21:02:35.309Z,100289.20
2024-04-25T21:05:04.317Z,100284.34
2024-04-25T21:07:34.747Z,100283.73
2024-04-25T21:10:03.806Z,100282.82
2024-04-25T21:12:31.688Z,100284.70
2024-04-25T21:14:59.434Z,100285.91
2024-04-25T21:17:28.626Z,100296.00
2024-04-25T21:19:56.432Z,100295.59
2024-04-25T21:22:24.230Z,100295.55
2024-04-25T21:24:51.785Z,100299.42
2024-04-25T21:27:19.338Z,100296.44
2024-04-25T21:29:47.292Z,100299.01
2024-04-25T21:32:16.598Z,100301.99
2024-04-25T21:34:47.759Z,100300.46
2024-04-25T21:37:15.386Z,100303.33
2024-04-25T21:39:43.232Z,100305.25
2024-04-25T21:42:11.228Z,100305.80
2024-04-25T21:44:39.248Z,100305.66
2024-04-25T21:47:06.988Z,100306.11
2024-04-25T21:49:34.758Z,100306.57
2024-04-25T21:52:02.787Z,100306.85
2024-04-25T21:54:30.679Z,100304.88
2024-04-25T21:56:58.782Z,100304.86
2024-04-25T21:59:26.484Z,100305.13
2024-04-25T22:01:56.045Z,100305.06
2024-04-25T22:04:24.581Z,100307.29
2024-04-25T22:06:55.378Z,100304.36
2024-04-25T22:09:23.195Z,100303.10
2024-04-25T22:11:51.032Z,100307.56
2024-04-25T22:14:19.785Z,100308.48
2024-04-25T22:16:48.150Z,100306.30
2024-04-25T22:19:16.266Z,100307.77
2024-04-25T22:21:49.606Z,100305.48
2024-04-25T22:24:19.823Z,100304.67
2024-04-25T22:26:48.834Z,100303.21
2024-04-25T22:29:16.913Z,100307.06
2024-04-25T22:31:44.541Z,100306.05
2024-04-25T22:34:12.424Z,100303.97
2024-04-25T22:36:40.185Z,100303.75
2024-04-25T22:39:07.968Z,100308.52
2024-04-25T22:41:35.830Z,100308.61
2024-04-25T22:44:03.619Z,100308.75
2024-04-25T22:46:31.560Z,100309.31
2024-04-25T22:48:59.842Z,100310.77
2024-04-25T22:51:27.910Z,100315.16
2024-04-25T22:53:55.742Z,100318.16
2024-04-25T22:56:23.575Z,100317.70
2024-04-25T22:58:51.400Z,100317.77
2024-04-25T23:01:19.231Z,100318.85
2024-04-25T23:03:46.928Z,100317.21
2024-04-25T23:06:14.865Z,100320.28
2024-04-25T23:08:42.695Z,100322.50
2024-04-25T23:11:10.819Z,100321.87
2024-04-25T23:13:38.862Z,100322.13
2024-04-25T23:16:13.835Z,100322.55
2024-04-25T23:18:42.369Z,100321.61
2024-04-25T23:21:10.288Z,100324.77
2024-04-25T23:23:39.557Z,100323.92
2024-04-25T23:26:07.676Z,100323.17
2024-04-25T23:28:35.576Z,100320.77
2024-04-25T23:31:03.460Z,100320.63
2024-04-25T23:33:31.229Z,100321.02
2024-04-25T23:36:02.901Z,100321.29
2024-04-25T23:38:30.653Z,100320.67
2024-04-25T23:40:59.509Z,100323.88
2024-04-25T23:43:28.255Z,100327.13
2024-04-25T23:45:55.845Z,100326.91
2024-04-25T23:48:23.637Z,100328.98
2024-04-25T23:50:52.922Z,100328.96
2024-04-25T23:53:20.830Z,100326.40
2024-04-25T23:55:49.926Z,100326.56
2024-04-25T23:58:17.876Z,100324.79
